Time;durP1;ratioP1;P1;durP2;ratioP2;P2;SDS_P1;SDS_P2;PMS_P1;PMS_P2;Temp;Humidity;BMP_temperature;BMP_pressure;BME280_temperature;BME280_humidity;BME280_pressure;Samples;Min_cycle;Max_cycle;Signal;HPM_P1;HPM_P2
2021/10/20 00:01:59;;;;;;;7.18;3.92;;;;;;;14.16;nan;100687.31;5063010;28;20047;-84
2021/10/20 00:04:24;;;;;;;7.32;3.80;;;;;;;14.08;nan;100690.78;5061827;28;20040;-84
2021/10/20 00:06:51;;;;;;;6.20;4.18;;;;;;;14.04;nan;100678.84;5061582;28;20064;-84
2021/10/20 00:09:16;;;;;;;5.50;3.67;;;;;;;14.05;nan;100679.69;5063667;28;20044;-83
2021/10/20 00:11:42;;;;;;;6.32;4.18;;;;;;;14.02;nan;100668.38;5071989;28;20041;-85
2021/10/20 00:14:07;;;;;;;6.15;3.83;;;;;;;13.99;nan;100665.22;5062714;28;20025;-85
2021/10/20 00:16:32;;;;;;;4.65;3.80;;;;;;;14.00;nan;100656.25;5065772;28;20032;-85
2021/10/20 00:18:58;;;;;;;6.85;3.97;;;;;;;14.04;nan;100652.28;5063961;28;20024;-85
2021/10/20 00:21:26;;;;;;;6.35;4.00;;;;;;;14.07;nan;100651.09;5068404;28;20035;-85
2021/10/20 00:23:52;;;;;;;6.47;4.53;;;;;;;14.07;nan;100645.78;5061304;28;20097;-85
2021/10/20 00:26:17;;;;;;;5.60;3.75;;;;;;;14.00;nan;100643.78;5063366;28;20027;-85
2021/10/20 00:28:42;;;;;;;7.35;4.10;;;;;;;14.05;nan;100640.63;5065493;28;20128;-85
2021/10/20 00:31:08;;;;;;;7.95;4.00;;;;;;;14.06;nan;100644.09;5063177;28;20040;-85
2021/10/20 00:33:34;;;;;;;5.40;3.63;;;;;;;14.07;nan;100646.59;5067669;28;20025;-85
2021/10/20 00:35:59;;;;;;;6.25;4.25;;;;;;;14.07;nan;100641.28;5061095;28;20040;-85
2021/10/20 00:38:24;;;;;;;6.68;3.95;;;;;;;14.10;nan;100634.78;5064135;28;20420;-85
2021/10/20 00:40:51;;;;;;;6.38;4.00;;;;;;;14.08;nan;100623.50;5064474;28;20041;-85
2021/10/20 00:43:21;;;;;;;5.25;3.35;;;;;;;14.07;nan;100624.50;5068196;28;20088;-85
2021/10/20 00:45:47;;;;;;;7.85;3.85;;;;;;;14.06;nan;100615.69;5059793;28;20098;-85
2021/10/20 00:48:13;;;;;;;5.18;3.60;;;;;;;13.92;nan;100617.25;5060355;28;20036;-85
2021/10/20 00:50:38;;;;;;;5.47;3.90;;;;;;;13.80;nan;100608.00;5068285;28;20108;-85
2021/10/20 00:53:03;;;;;;;5.15;3.35;;;;;;;13.73;nan;100604.31;5069475;28;20510;-84
2021/10/20 00:55:29;;;;;;;4.90;3.40;;;;;;;13.72;nan;100605.34;5062055;28;20041;-85
2021/10/20 00:57:55;;;;;;;5.78;3.45;;;;;;;13.75;nan;100604.97;5068699;28;20050;-84
2021/10/20 01:00:20;;;;;;;4.22;3.30;;;;;;;13.79;nan;100612.44;5062390;28;20029;-85
2021/10/20 01:02:46;;;;;;;4.28;3.15;;;;;;;13.68;nan;100612.84;5063840;28;20094;-85
2021/10/20 01:05:13;;;;;;;4.45;3.17;;;;;;;13.51;nan;100608.53;5070778;28;20451;-85
2021/10/20 01:07:39;;;;;;;4.05;3.03;;;;;;;13.36;nan;100622.50;5063223;28;20406;-85
2021/10/20 01:10:06;;;;;;;4.57;3.15;;;;;;;13.21;nan;100618.84;5061669;28;20498;-85
2021/10/20 01:12:34;;;;;;;5.95;3.42;;;;;;;13.12;nan;100623.31;5060941;28;20051;-84
2021/10/20 01:14:59;;;;;;;5.10;3.15;;;;;;;13.10;nan;100624.47;5061907;28;20097;-85
2021/10/20 01:17:25;;;;;;;6.13;3.13;;;;;;;13.04;nan;100627.78;5062087;28;20044;-84
2021/10/20 01:19:50;;;;;;;7.05;3.60;;;;;;;13.09;nan;100625.47;5070991;28;20057;-84
2021/10/20 01:22:16;;;;;;;6.20;3.72;;;;;;;13.25;nan;100620.19;5061555;28;20114;-84
2021/10/20 01:24:42;;;;;;;7.00;3.65;;;;;;;13.38;nan;100625.00;5071425;28;20090;-84
2021/10/20 01:27:08;;;;;;;7.28;3.65;;;;;;;13.50;nan;100617.50;5066948;28;20037;-84
2021/10/20 01:29:34;;;;;;;6.65;3.83;;;;;;;13.49;nan;100616.69;5067133;28;20039;-84
2021/10/20 01:32:01;;;;;;;6.40;3.75;;;;;;;13.49;nan;100608.72;5084091;28;20516;-84
2021/10/20 01:34:27;;;;;;;5.60;3.85;;;;;;;13.55;nan;100605.38;5085883;28;20033;-84
2021/10/20 01:36:53;;;;;;;6.28;3.53;;;;;;;13.54;nan;100608.22;5068100;28;20059;-84
2021/10/20 01:39:20;;;;;;;5.38;3.60;;;;;;;13.60;nan;100608.34;5067990;28;20051;-85
2021/10/20 01:41:46;;;;;;;7.20;3.70;;;;;;;13.62;nan;100605.53;5088015;28;20033;-83
2021/10/20 01:44:12;;;;;;;4.90;3.70;;;;;;;13.62;nan;100602.06;5067865;28;20521;-84
2021/10/20 01:46:37;;;;;;;7.18;3.72;;;;;;;13.67;nan;100603.19;5076652;28;20085;-84
2021/10/20 01:49:03;;;;;;;7.00;3.80;;;;;;;13.70;nan;100596.69;5068676;28;20032;-85
2021/10/20 01:51:28;;;;;;;5.80;3.90;;;;;;;13.64;nan;100590.25;5094303;28;20100;-84
2021/10/20 01:53:54;;;;;;;7.00;3.50;;;;;;;13.64;nan;100584.13;5089207;28;20513;-84
2021/10/20 01:56:20;;;;;;;6.18;3.92;;;;;;;13.63;nan;100567.31;5087712;28;20115;-84
2021/10/20 01:58:46;;;;;;;4.68;3.67;;;;;;;13.61;nan;100566.69;5067952;28;20033;-84
2021/10/20 02:01:11;;;;;;;6.47;3.97;;;;;;;13.60;nan;100560.50;5067402;28;20051;-84
2021/10/20 02:03:38;;;;;;;6.07;3.95;;;;;;;13.65;nan;100557.34;5066859;28;20024;-85
2021/10/20 02:06:10;;;;;;;6.68;3.67;;;;;;;13.57;nan;100547.59;5091910;28;20057;-85
2021/10/20 02:08:35;;;;;;;5.65;3.70;;;;;;;13.57;nan;100544.09;5074534;28;20044;-84
2021/10/20 02:11:01;;;;;;;8.35;4.32;;;;;;;13.51;nan;100534.97;5075575;28;20024;-85
2021/10/20 02:13:26;;;;;;;4.80;3.63;;;;;;;13.53;nan;100538.28;5066377;28;20028;-85
2021/10/20 02:15:52;;;;;;;5.75;3.92;;;;;;;13.51;nan;100527.00;5092936;28;20033;-85
2021/10/20 02:18:18;;;;;;;7.03;3.90;;;;;;;13.51;nan;100520.88;5065068;28;20033;-84
2021/10/20 02:20:43;;;;;;;5.53;4.07;;;;;;;13.55;nan;100507.06;5084090;28;20044;-85
2021/10/20 02:23:08;;;;;;;7.82;4.10;;;;;;;13.54;nan;100512.56;5083850;28;20058;-85
2021/10/20 02:25:34;;;;;;;5.97;4.13;;;;;;;13.51;nan;100504.94;5065500;28;20044;-86
2021/10/20 02:27:59;;;;;;;7.32;3.65;;;;;;;13.55;nan;100498.28;5083589;28;20055;-85
2021/10/20 02:30:25;;;;;;;5.30;3.78;;;;;;;13.53;nan;100501.09;5066365;28;20042;-85
2021/10/20 02:32:51;;;;;;;6.63;4.15;;;;;;;13.60;nan;100499.41;5066077;28;20366;-85
2021/10/20 02:35:17;;;;;;;6.25;3.83;;;;;;;13.59;nan;100491.63;5084003;28;20036;-85
2021/10/20 02:37:45;;;;;;;7.72;4.15;;;;;;;13.55;nan;100485.81;5066439;28;20083;-85
2021/10/20 02:40:11;;;;;;;7.35;4.07;;;;;;;13.56;nan;100484.84;5064690;28;20043;-84
2021/10/20 02:42:38;;;;;;;6.22;3.72;;;;;;;13.63;nan;100486.78;5066257;28;20036;-85
2021/10/20 02:45:05;;;;;;;6.97;3.92;;;;;;;13.64;nan;100480.50;5091563;28;20032;-85
2021/10/20 02:47:30;;;;;;;6.65;3.50;;;;;;;13.58;nan;100474.00;5065143;28;20033;-85
2021/10/20 02:49:55;;;;;;;6.65;3.92;;;;;;;13.59;nan;100473.84;5073761;28;20035;-85
2021/10/20 02:52:20;;;;;;;5.30;3.67;;;;;;;13.58;nan;100474.00;5066245;28;20051;-85
2021/10/20 02:54:46;;;;;;;6.28;3.58;;;;;;;13.59;nan;100468.53;5064557;28;20033;-85
2021/10/20 02:57:11;;;;;;;8.25;4.05;;;;;;;13.56;nan;100474.22;5092564;28;20096;-85
2021/10/20 02:59:36;;;;;;;7.38;3.95;;;;;;;13.49;nan;100473.25;5064837;28;20055;-85
2021/10/20 03:02:02;;;;;;;6.57;4.10;;;;;;;13.42;nan;100464.31;5073068;28;20056;-85
2021/10/20 03:04:27;;;;;;;5.40;3.83;;;;;;;13.37;nan;100470.13;5069509;28;20043;-85
2021/10/20 03:06:52;;;;;;;5.15;3.80;;;;;;;13.29;nan;100462.16;5088417;28;20036;-85
2021/10/20 03:09:18;;;;;;;6.97;3.95;;;;;;;13.24;nan;100468.97;5069071;28;20052;-86
2021/10/20 03:11:43;;;;;;;5.32;3.38;;;;;;;13.16;nan;100470.66;5072825;28;20052;-85
2021/10/20 03:14:09;;;;;;;6.35;3.80;;;;;;;13.14;nan;100477.94;5065849;28;20032;-85
2021/10/20 03:16:35;;;;;;;6.25;3.45;;;;;;;13.07;nan;100471.66;5065866;28;20033;-85
2021/10/20 03:19:00;;;;;;;6.13;3.33;;;;;;;13.10;nan;100468.66;5065834;28;20513;-84
2021/10/20 03:21:26;;;;;;;6.13;3.75;;;;;;;13.16;nan;100467.19;5087233;28;20059;-85
2021/10/20 03:23:51;;;;;;;4.82;3.40;;;;;;;13.14;nan;100461.19;5085784;28;20040;-85
2021/10/20 03:26:16;;;;;;;5.85;3.60;;;;;;;13.21;nan;100464.00;5082637;28;20032;-85
2021/10/20 03:28:42;;;;;;;6.25;3.75;;;;;;;13.24;nan;100464.47;5074695;28;20037;-85
2021/10/20 03:31:07;;;;;;;7.93;3.90;;;;;;;13.27;nan;100464.16;5065242;28;20043;-85
2021/10/20 03:33:33;;;;;;;6.30;3.60;;;;;;;13.31;nan;100465.50;5083215;28;20084;-85
2021/10/20 03:35:58;;;;;;;5.95;4.18;;;;;;;13.27;nan;100472.13;5083151;28;20024;-85
2021/10/20 03:38:23;;;;;;;5.35;3.40;;;;;;;13.30;nan;100463.84;5065071;28;20040;-85
2021/10/20 03:40:48;;;;;;;6.25;3.60;;;;;;;13.33;nan;100462.66;5089773;28;20036;-85
2021/10/20 03:43:14;;;;;;;6.65;4.07;;;;;;;13.33;nan;100474.13;5084668;28;20409;-85
2021/10/20 03:45:39;;;;;;;;;;;;;;;13.32;nan;100479.59;5063745;28;20086;-85
2021/10/20 03:48:04;;;;;;;4.83;3.50;;;;;;;13.32;nan;100476.94;5082216;28;19913;-85
2021/10/20 03:50:30;;;;;;;7.38;3.58;;;;;;;13.34;nan;100473.09;5083066;28;20429;-85
2021/10/20 03:52:55;;;;;;;5.88;3.67;;;;;;;13.39;nan;100477.91;5092137;28;20092;-85
2021/10/20 03:55:21;;;;;;;6.57;3.67;;;;;;;13.37;nan;100480.75;5068025;28;20028;-85
2021/10/20 03:57:46;;;;;;;6.18;3.30;;;;;;;13.44;nan;100480.03;5069971;28;20031;-85
2021/10/20 04:00:14;;;;;;;5.18;3.38;;;;;;;13.43;nan;100478.41;5091118;28;20040;-84
2021/10/20 04:02:43;;;;;;;4.82;3.25;;;;;;;13.48;nan;100481.38;5065505;28;20054;-85
2021/10/20 04:05:18;;;;;;;5.85;3.72;;;;;;;13.52;nan;100480.03;5068178;28;20040;-85
2021/10/20 04:07:46;;;;;;;5.55;3.60;;;;;;;13.61;nan;100471.03;5073350;28;20033;-85
2021/10/20 04:10:20;;;;;;;5.88;3.90;;;;;;;13.62;nan;100469.19;5072138;28;20029;-85
2021/10/20 04:12:45;;;;;;;6.78;3.53;;;;;;;13.62;nan;100462.06;5079224;28;20093;-85
2021/10/20 04:15:11;;;;;;;;;;;;;;;13.64;nan;100460.06;5089244;28;20029;-85
2021/10/20 04:17:38;;;;;;;7.20;3.87;;;;;;;13.58;nan;100453.59;5064508;28;19912;-85
2021/10/20 04:20:08;;;;;;;7.70;3.72;;;;;;;13.60;nan;100456.06;5063637;28;20267;-85
2021/10/20 04:22:33;;;;;;;4.78;3.55;;;;;;;13.58;nan;100448.25;5081721;28;20404;-85
2021/10/20 04:24:59;;;;;;;5.63;3.72;;;;;;;13.56;nan;100436.16;5064765;28;20029;-85
2021/10/20 04:27:25;;;;;;;7.35;4.03;;;;;;;13.51;nan;100427.88;5063633;28;20127;-85
2021/10/20 04:29:50;;;;;;;5.50;3.63;;;;;;;13.56;nan;100433.50;5071237;28;20031;-85
2021/10/20 04:32:16;;;;;;;5.15;3.60;;;;;;;13.63;nan;100428.34;5082948;28;20554;-85
2021/10/20 04:34:41;;;;;;;6.35;3.60;;;;;;;13.70;nan;100424.78;5063837;28;20032;-84
2021/10/20 04:37:06;;;;;;;5.57;3.60;;;;;;;13.64;nan;100432.66;5064595;28;20086;-85
2021/10/20 04:39:32;;;;;;;6.05;3.40;;;;;;;13.65;nan;100424.50;5071853;28;20032;-85
2021/10/20 04:41:57;;;;;;;7.00;3.90;;;;;;;13.68;nan;100418.84;5089650;28;20493;-85
2021/10/20 04:44:22;;;;;;;5.65;3.80;;;;;;;13.72;nan;100419.31;5081551;28;20055;-85
2021/10/20 04:46:48;;;;;;;5.68;3.60;;;;;;;13.70;nan;100405.38;5081837;28;20058;-86
2021/10/20 04:49:13;;;;;;;6.30;3.75;;;;;;;13.74;nan;100401.38;5085942;28;20112;-85
2021/10/20 04:51:38;;;;;;;6.60;3.70;;;;;;;13.67;nan;100390.63;5067912;28;20029;-85
2021/10/20 04:54:04;;;;;;;7.22;3.67;;;;;;;13.68;nan;100392.28;5064860;28;20059;-85
2021/10/20 04:56:29;;;;;;;6.00;3.67;;;;;;;13.68;nan;100397.59;5063403;28;20036;-85
2021/10/20 04:58:54;;;;;;;5.47;3.33;;;;;;;13.64;nan;100396.28;5082547;28;20039;-85
2021/10/20 05:01:19;;;;;;;4.60;3.58;;;;;;;13.67;nan;100387.94;5064445;28;20020;-85
2021/10/20 05:03:45;;;;;;;5.20;3.45;;;;;;;13.73;nan;100387.25;5072577;28;20042;-85
2021/10/20 05:06:10;;;;;;;5.47;3.35;;;;;;;13.79;nan;100393.69;5072966;28;20039;-85
2021/10/20 05:08:35;;;;;;;6.82;3.58;;;;;;;13.86;nan;100389.31;5088799;28;20039;-84
2021/10/20 05:11:01;;;;;;;5.07;3.40;;;;;;;13.88;nan;100389.16;5089722;28;20413;-85
2021/10/20 05:13:26;;;;;;;7.38;3.60;;;;;;;13.79;nan;100397.19;5071155;28;20041;-84
2021/10/20 05:15:51;;;;;;;5.38;3.65;;;;;;;13.77;nan;100409.81;5080090;28;20035;-84
2021/10/20 05:18:17;;;;;;;5.47;3.92;;;;;;;13.78;nan;100408.81;5072799;28;20016;-83
2021/10/20 05:20:42;;;;;;;5.00;3.58;;;;;;;13.70;nan;100405.38;5088547;28;20051;-84
2021/10/20 05:23:10;;;;;;;4.38;3.28;;;;;;;13.65;nan;100392.63;5095186;28;20039;-84
2021/10/20 05:25:36;;;;;;;5.88;3.67;;;;;;;13.71;nan;100385.78;5064870;28;20074;-84
2021/10/20 05:28:02;;;;;;;4.50;3.38;;;;;;;13.75;nan;100390.56;5091888;28;20037;-85
2021/10/20 05:30:27;;;;;;;5.60;3.80;;;;;;;13.72;nan;100382.94;5072875;28;20029;-85
2021/10/20 05:32:53;;;;;;;5.93;3.20;;;;;;;13.70;nan;100382.28;5065523;28;20029;-85
2021/10/20 05:35:18;;;;;;;4.03;3.10;;;;;;;13.73;nan;100383.75;5083456;28;20041;-85
2021/10/20 05:37:50;;;;;;;4.57;3.35;;;;;;;13.74;nan;100380.13;5085224;28;20056;-85
2021/10/20 05:40:16;;;;;;;;;;;;;;;13.75;nan;100366.66;5064812;28;20113;-85
2021/10/20 05:42:41;;;;;;;4.80;3.47;;;;;;;13.73;nan;100358.03;5063223;28;20146;-84
2021/10/20 05:45:07;;;;;;;6.35;3.55;;;;;;;13.70;nan;100355.72;5080863;28;20032;-85
2021/10/20 05:47:32;;;;;;;5.65;3.55;;;;;;;13.67;nan;100350.75;5081430;28;20041;-84
2021/10/20 05:49:57;;;;;;;5.07;3.58;;;;;;;13.67;nan;100352.59;5080922;28;20506;-84
2021/10/20 05:52:23;;;;;;;5.68;3.70;;;;;;;13.66;nan;100365.06;5080487;28;20087;-85
2021/10/20 05:54:48;;;;;;;5.85;3.63;;;;;;;13.61;nan;100359.44;5063421;28;20025;-85
2021/10/20 05:57:13;;;;;;;5.95;3.47;;;;;;;13.58;nan;100347.31;5089709;28;20040;-84
2021/10/20 05:59:38;;;;;;;5.95;3.72;;;;;;;13.60;nan;100342.66;5081372;28;20458;-84
2021/10/20 06:02:04;;;;;;;5.47;3.45;;;;;;;13.64;nan;100335.19;5063792;28;20042;-84
2021/10/20 06:04:29;;;;;;;7.43;3.70;;;;;;;13.71;nan;100329.97;5081503;28;20313;-85
2021/10/20 06:06:55;;;;;;;5.40;3.63;;;;;;;13.71;nan;100322.84;5063228;28;20120;-85
2021/10/20 06:09:20;;;;;;;6.18;3.80;;;;;;;13.77;nan;100331.91;5083620;28;20035;-85
2021/10/20 06:11:46;;;;;;;4.78;3.10;;;;;;;13.78;nan;100326.44;5085291;28;20029;-85
2021/10/20 06:14:11;;;;;;;5.72;3.38;;;;;;;13.87;nan;100337.84;5066109;28;20029;-84
2021/10/20 06:16:38;;;;;;;5.45;3.30;;;;;;;13.94;nan;100343.25;5085133;28;20082;-85
2021/10/20 06:19:04;;;;;;;5.15;3.20;;;;;;;13.96;nan;100344.72;5075244;28;20048;-85
2021/10/20 06:21:30;;;;;;;4.13;3.28;;;;;;;14.02;nan;100343.19;5088687;28;20066;-85
2021/10/20 06:23:55;;;;;;;3.97;2.97;;;;;;;14.06;nan;100347.13;5088848;28;20036;-85
2021/10/20 06:26:21;;;;;;;5.85;3.35;;;;;;;14.03;nan;100337.69;5085884;28;20085;-85
2021/10/20 06:28:46;;;;;;;6.38;3.70;;;;;;;14.03;nan;100348.31;5068812;28;20046;-83
2021/10/20 06:31:11;;;;;;;6.32;3.50;;;;;;;13.99;nan;100328.44;5068767;28;20043;-86
2021/10/20 06:33:37;;;;;;;6.07;3.83;;;;;;;13.91;nan;100336.47;5086655;28;20474;-85
2021/10/20 06:36:02;;;;;;;4.78;3.30;;;;;;;13.95;nan;100327.13;5087223;28;20024;-85
2021/10/20 06:38:28;;;;;;;4.57;3.28;;;;;;;14.03;nan;100334.22;5095515;28;20573;-85
2021/10/20 06:40:53;;;;;;;5.80;3.58;;;;;;;14.09;nan;100335.34;5103118;28;20081;-85
2021/10/20 06:43:19;;;;;;;4.53;3.42;;;;;;;14.13;nan;100337.44;5069141;28;20040;-85
2021/10/20 06:45:44;;;;;;;4.63;3.25;;;;;;;14.23;nan;100326.56;5072294;28;20028;-85
2021/10/20 06:48:09;;;;;;;4.93;3.33;;;;;;;14.28;nan;100316.22;5066239;28;20195;-85
2021/10/20 06:50:35;;;;;;;5.00;3.58;;;;;;;14.39;nan;100310.44;5071328;28;20035;-85
2021/10/20 06:53:01;;;;;;;6.80;3.88;;;;;;;14.55;nan;100311.31;5069059;28;20468;-85
2021/10/20 06:55:27;;;;;;;6.78;3.65;;;;;;;14.62;nan;100310.38;5065105;28;20044;-84
2021/10/20 06:57:52;;;;;;;5.50;3.40;;;;;;;14.68;nan;100306.16;5065844;28;20028;-85
2021/10/20 07:00:17;;;;;;;5.60;3.75;;;;;;;14.78;nan;100304.06;5073631;28;20230;-85
2021/10/20 07:02:42;;;;;;;4.32;3.40;;;;;;;14.81;nan;100305.53;5065115;28;20462;-85
2021/10/20 07:05:08;;;;;;;5.50;3.70;;;;;;;14.87;nan;100296.78;5083361;28;20036;-85
2021/10/20 07:07:35;;;;;;;5.43;3.50;;;;;;;14.92;nan;100291.75;5083710;28;20056;-85
2021/10/20 07:10:01;;;;;;;5.78;3.92;;;;;;;15.01;nan;100309.25;5065237;28;20029;-85
2021/10/20 07:12:30;;;;;;;7.03;3.38;;;;;;;15.10;nan;100295.84;5090166;28;20040;-85
2021/10/20 07:14:55;;;;;;;5.88;3.70;;;;;;;15.14;nan;100295.28;5064948;28;20032;-85
2021/10/20 07:17:21;;;;;;;6.22;3.80;;;;;;;15.14;nan;100297.13;5091740;28;20035;-85
2021/10/20 07:19:46;;;;;;;5.15;3.53;;;;;;;15.17;nan;100302.06;5064407;28;20070;-84
2021/10/20 07:22:11;;;;;;;5.55;3.70;;;;;;;15.22;nan;100308.47;5064152;28;20063;-84
2021/10/20 07:24:37;;;;;;;4.68;3.42;;;;;;;15.25;nan;100302.81;5063818;28;20033;-85
2021/10/20 07:27:04;;;;;;;6.80;3.88;;;;;;;15.28;nan;100298.94;5082242;28;20037;-84
2021/10/20 07:29:29;;;;;;;4.80;3.42;;;;;;;15.30;nan;100307.53;5072901;28;20112;-85
2021/10/20 07:31:54;;;;;;;5.15;3.50;;;;;;;15.22;nan;100311.16;5073143;28;20029;-84
2021/10/20 07:34:20;;;;;;;4.15;3.25;;;;;;;15.16;nan;100303.06;5064283;28;20044;-85
2021/10/20 07:36:45;;;;;;;4.45;3.72;;;;;;;15.21;nan;100309.50;5088932;28;20217;-85
2021/10/20 07:39:12;;;;;;;5.53;3.20;;;;;;;15.40;nan;100313.41;5066705;28;20425;-85
2021/10/20 07:41:38;;;;;;;5.88;3.42;;;;;;;15.49;nan;100311.44;5090944;28;20108;-85
2021/10/20 07:44:04;;;;;;;7.03;3.65;;;;;;;15.62;nan;100305.44;5063287;28;20292;-85
2021/10/20 07:46:29;;;;;;;5.43;3.30;;;;;;;15.64;nan;100306.06;5090383;28;20036;-85
2021/10/20 07:48:55;;;;;;;6.25;3.60;;;;;;;15.80;nan;100323.66;5064682;28;20066;-85
2021/10/20 07:51:20;;;;;;;6.15;3.83;;;;;;;15.89;nan;100320.66;5072566;28;20115;-85
2021/10/20 07:53:45;;;;;;;6.50;3.97;;;;;;;16.01;nan;100312.16;5073578;28;20112;-85
2021/10/20 07:56:11;;;;;;;5.32;3.20;;;;;;;16.20;nan;100302.66;5064025;28;20267;-84
2021/10/20 07:58:36;;;;;;;5.97;3.70;;;;;;;16.20;nan;100308.00;5081459;28;20033;-84
2021/10/20 08:01:01;;;;;;;4.45;3.08;;;;;;;16.15;nan;100303.25;5064527;28;20035;-84
2021/10/20 08:03:28;;;;;;;4.80;3.35;;;;;;;16.10;nan;100295.81;5064085;28;20037;-84
2021/10/20 08:05:54;;;;;;;6.80;3.33;;;;;;;15.98;nan;100289.38;5082212;28;20037;-85
2021/10/20 08:08:20;;;;;;;6.35;3.25;;;;;;;15.98;nan;100301.88;5081776;28;20037;-84
2021/10/20 08:10:45;;;;;;;5.38;3.50;;;;;;;15.75;nan;100294.09;5064588;28;20036;-84
2021/10/20 08:13:11;;;;;;;6.18;3.22;;;;;;;15.66;nan;100288.88;5073021;28;20052;-84
2021/10/20 08:15:39;;;;;;;5.82;3.30;;;;;;;15.61;nan;100295.75;5082312;28;20028;-85
2021/10/20 08:18:05;;;;;;;8.25;3.60;;;;;;;15.57;nan;100275.88;5090197;28;20038;-84
2021/10/20 08:20:32;;;;;;;5.70;3.58;;;;;;;15.64;nan;100277.56;5064266;28;20036;-84
2021/10/20 08:22:58;;;;;;;4.03;3.00;;;;;;;15.63;nan;100280.41;5072301;28;20088;-84
2021/10/20 08:25:23;;;;;;;4.57;2.97;;;;;;;15.60;nan;100276.28;5081233;28;20036;-84
2021/10/20 08:27:49;;;;;;;5.57;3.40;;;;;;;15.75;nan;100262.09;5062611;28;20036;-83
2021/10/20 08:30:18;;;;;;;4.82;3.50;;;;;;;15.86;nan;100258.91;5088689;28;20028;-84
2021/10/20 08:32:45;;;;;;;4.68;3.58;;;;;;;15.90;nan;100252.19;5080365;28;20032;-82
2021/10/20 08:35:15;;;;;;;4.88;3.35;;;;;;;16.05;nan;100249.41;5081362;28;20043;-83
2021/10/20 08:37:41;;;;;;;5.15;3.42;;;;;;;16.25;nan;100229.00;5074546;28;20032;-82
2021/10/20 08:40:08;;;;;;;5.43;3.13;;;;;;;16.32;nan;100213.06;5064438;28;20490;-83
2021/10/20 08:42:33;;;;;;;5.63;3.25;;;;;;;16.30;nan;100202.59;5062221;28;20048;-84
2021/10/20 08:44:59;;;;;;;4.72;3.60;;;;;;;16.35;nan;100204.66;5080625;28;20481;-84
2021/10/20 08:47:25;;;;;;;6.97;3.60;;;;;;;16.30;nan;100205.25;5080973;28;20040;-84
2021/10/20 08:49:51;;;;;;;5.90;3.20;;;;;;;16.30;nan;100207.09;5062916;28;20044;-85
2021/10/20 08:52:17;;;;;;;4.78;3.03;;;;;;;16.31;nan;100222.09;5080847;28;20128;-83
2021/10/20 08:54:42;;;;;;;6.30;3.55;;;;;;;16.25;nan;100221.00;5086760;28;20134;-84
2021/10/20 08:57:08;;;;;;;4.65;2.90;;;;;;;16.16;nan;100227.53;5063335;28;20033;-84
2021/10/20 08:59:35;;;;;;;4.57;3.08;;;;;;;16.08;nan;100223.16;5065822;28;20056;-83
2021/10/20 09:02:04;;;;;;;5.90;3.28;;;;;;;16.10;nan;100213.13;5083961;28;20036;-85
2021/10/20 09:04:31;;;;;;;4.80;3.30;;;;;;;16.16;nan;100237.38;5080692;28;20041;-84
2021/10/20 09:07:00;;;;;;;5.75;3.35;;;;;;;16.03;nan;100230.94;5060469;28;20110;-83
2021/10/20 09:09:35;;;;;;;6.32;3.33;;;;;;;16.10;nan;100228.31;5070349;28;20032;-84
2021/10/20 09:12:00;;;;;;;7.35;3.00;;;;;;;15.96;nan;100230.06;5064451;28;20036;-84
2021/10/20 09:14:26;;;;;;;4.75;3.40;;;;;;;16.03;nan;100235.44;5070580;28;20080;-84
2021/10/20 09:16:51;;;;;;;7.05;3.30;;;;;;;16.03;nan;100243.44;5062815;28;20066;-82
2021/10/20 09:19:30;;;;;;;5.13;3.53;;;;;;;16.09;nan;100229.34;5061824;28;20033;-84
2021/10/20 09:22:04;;;;;;;4.88;3.20;;;;;;;16.12;nan;100215.63;5062247;28;20025;-84
2021/10/20 09:24:38;;;;;;;5.03;3.10;;;;;;;16.07;nan;100223.38;5061535;28;20033;-84
2021/10/20 09:27:16;;;;;;;4.95;3.60;;;;;;;16.19;nan;100215.66;5061456;28;20032;-84
2021/10/20 09:29:41;;;;;;;5.63;3.30;;;;;;;16.20;nan;100211.97;5080302;28;20382;-84
2021/10/20 09:32:07;;;;;;;4.15;3.10;;;;;;;16.26;nan;100213.84;5060139;28;20039;-82
2021/10/20 09:34:34;;;;;;;6.65;3.17;;;;;;;16.28;nan;100219.78;5077013;28;20032;-83
2021/10/20 09:37:03;;;;;;;3.92;3.00;;;;;;;16.38;nan;100222.13;5059492;28;20037;-83
2021/10/20 09:39:28;;;;;;;5.43;3.13;;;;;;;16.44;nan;100207.97;5066952;28;20048;-83
2021/10/20 09:41:55;;;;;;;5.53;3.47;;;;;;;16.53;nan;100207.63;5076864;28;20043;-82
2021/10/20 09:44:21;;;;;;;6.20;3.20;;;;;;;16.42;nan;100194.00;5060592;28;20089;-83
2021/10/20 09:46:47;;;;;;;5.05;3.20;;;;;;;16.50;nan;100184.00;5072577;28;20041;-84
2021/10/20 09:49:18;;;;;;;5.35;2.92;;;;;;;16.51;nan;100180.28;5066494;28;20029;-83
2021/10/20 09:51:44;;;;;;;6.20;3.40;;;;;;;16.49;nan;100179.69;5069886;28;20397;-82
2021/10/20 09:54:41;;;;;;;5.05;3.40;;;;;;;16.52;nan;100173.13;5090953;28;20093;-83
2021/10/20 09:57:06;;;;;;;4.68;3.10;;;;;;;16.58;nan;100176.84;5047433;28;20114;-82
2021/10/20 09:59:31;;;;;;;5.43;3.10;;;;;;;16.77;nan;100168.06;5063018;28;20036;-82
2021/10/20 10:01:57;;;;;;;5.20;2.95;;;;;;;16.92;nan;100173.25;5080420;28;20035;-82
2021/10/20 10:04:25;;;;;;;5.38;3.33;;;;;;;16.90;nan;100160.13;5062013;28;20028;-83
2021/10/20 10:06:50;;;;;;;4.18;2.90;;;;;;;16.87;nan;100165.03;5063970;28;20037;-84
2021/10/20 10:09:17;;;;;;;5.50;3.20;;;;;;;16.87;nan;100159.69;5083268;28;20116;-83
2021/10/20 10:11:49;;;;;;;4.05;2.83;;;;;;;16.92;nan;100165.25;5087433;28;20056;-83
2021/10/20 10:14:18;;;;;;;5.88;2.97;;;;;;;16.97;nan;100168.97;5080466;28;20078;-84
2021/10/20 10:16:46;;;;;;;4.82;3.30;;;;;;;17.05;nan;100167.97;5082105;28;20028;-83
2021/10/20 10:19:12;;;;;;;4.13;2.95;;;;;;;17.10;nan;100156.66;5063579;28;20040;-82
2021/10/20 10:21:40;;;;;;;4.43;2.88;;;;;;;17.24;nan;100165.53;5063562;28;20401;-85
2021/10/20 10:24:14;;;;;;;6.00;3.15;;;;;;;17.38;nan;100151.16;5090258;28;20036;-82
2021/10/20 10:27:03;;;;;;;4.30;2.97;;;;;;;17.49;nan;100147.84;5069177;28;20067;-83
2021/10/20 10:29:30;;;;;;;4.57;3.15;;;;;;;17.67;nan;100144.53;5080327;28;20039;-84
2021/10/20 10:32:01;;;;;;;4.90;3.00;;;;;;;17.77;nan;100128.06;5061837;28;20028;-82
2021/10/20 10:34:31;;;;;;;;;;;;;;;17.98;nan;100135.06;5080636;28;20057;-83
2021/10/20 10:36:59;;;;;;;4.90;3.10;;;;;;;18.15;nan;100132.75;5062738;28;20030;-83
2021/10/20 10:39:25;;;;;;;6.07;3.20;;;;;;;18.14;nan;100134.59;5063458;28;20035;-83
2021/10/20 10:41:57;;;;;;;5.43;3.17;;;;;;;18.15;nan;100154.16;5070129;28;20537;-83
2021/10/20 10:44:23;;;;;;;4.50;3.17;;;;;;;18.02;nan;100149.66;5088380;28;20044;-83
2021/10/20 10:47:20;;;;;;;4.15;3.10;;;;;;;17.91;nan;100148.44;5063005;28;20040;-84
2021/10/20 10:50:11;;;;;;;5.75;3.08;;;;;;;17.89;nan;100139.81;5057577;28;20033;-85
2021/10/20 10:52:39;;;;;;;5.07;2.80;;;;;;;17.91;nan;100121.69;5057802;28;20035;-84
2021/10/20 10:55:17;;;;;;;5.65;3.40;;;;;;;18.00;nan;100117.75;5061917;28;20039;-83
2021/10/20 10:57:57;;;;;;;4.90;3.30;;;;;;;17.98;nan;100124.34;5068530;28;20085;-84
2021/10/20 11:00:23;;;;;;;6.53;3.50;;;;;;;17.90;nan;100112.03;5062680;28;20033;-83
2021/10/20 11:02:51;;;;;;;5.17;3.23;;;;;;;17.95;nan;100119.44;5063292;28;20047;-83
2021/10/20 11:05:22;;;;;;;4.93;3.20;;;;;;;17.98;nan;100098.41;5080169;28;20263;-84
2021/10/20 11:07:50;;;;;;;5.50;3.15;;;;;;;17.90;nan;100095.16;5080156;28;20100;-85
2021/10/20 11:10:17;;;;;;;5.05;3.10;;;;;;;17.85;nan;100082.41;5061634;28;20048;-82
2021/10/20 11:12:47;;;;;;;4.57;3.15;;;;;;;17.86;nan;100085.91;5062341;28;20029;-82
2021/10/20 11:15:14;;;;;;;6.10;3.33;;;;;;;17.83;nan;100098.69;5062556;28;20048;-84
2021/10/20 11:17:39;;;;;;;5.43;3.50;;;;;;;17.71;nan;100089.63;5081367;28;20088;-83
2021/10/20 11:20:09;;;;;;;6.35;3.58;;;;;;;17.70;nan;100084.47;5062138;28;20501;-85
2021/10/20 11:22:36;;;;;;;4.80;3.20;;;;;;;17.63;nan;100081.81;5071667;28;20036;-84
2021/10/20 11:25:05;;;;;;;6.57;3.40;;;;;;;17.68;nan;100073.97;5079654;28;20036;-84
2021/10/20 11:27:30;;;;;;;6.57;3.05;;;;;;;17.72;nan;100059.16;5062212;28;20098;-83
2021/10/20 11:29:56;;;;;;;5.65;3.22;;;;;;;17.85;nan;100060.19;5062235;28;20032;-83
2021/10/20 11:32:22;;;;;;;5.63;3.78;;;;;;;17.95;nan;100063.25;5064226;28;20438;-84
2021/10/20 11:34:49;;;;;;;5.50;3.22;;;;;;;17.90;nan;100066.56;5058724;28;20036;-83
2021/10/20 11:37:16;;;;;;;6.15;3.00;;;;;;;17.89;nan;100040.00;5080413;28;20124;-84
2021/10/20 11:39:54;;;;;;;3.78;3.17;;;;;;;17.95;nan;100049.88;5077817;28;20032;-85
2021/10/20 11:42:19;;;;;;;4.63;3.03;;;;;;;17.95;nan;100040.00;5058673;28;20044;-83